Time;durP1;ratioP1;P1;durP2;ratioP2;P2;SDS_P1;SDS_P2;PMS_P1;PMS_P2;Temp;Humidity;BMP_temperature;BMP_pressure;BME280_temperature;BME280_humidity;BME280_pressure;Samples;Min_cycle;Max_cycle;Signal;HPM_P1;HPM_P2
2023/10/26 00:00:27;;;;;;;;;;;10.60;99.90;;;;;;5176419;27;19922;-41
2023/10/26 00:02:53;;;;;;;;;;;10.60;99.90;;;;;;5177498;27;19923;-41
2023/10/26 00:05:18;;;;;;;;;;;10.60;99.90;;;;;;5180936;27;20293;-41
2023/10/26 00:07:44;;;;;;;;;;;10.60;99.90;;;;;;5180767;27;19934;-41
2023/10/26 00:10:10;;;;;;;;;;;10.60;99.90;;;;;;5180351;27;20323;-42
2023/10/26 00:12:36;;;;;;;;;;;10.60;99.90;;;;;;5180290;27;19923;-41
2023/10/26 00:15:01;;;;;;;;;;;10.60;99.90;;;;;;5180470;27;20392;-41
2023/10/26 00:17:27;;;;;;;;;;;10.60;99.90;;;;;;5180597;27;19951;-41
2023/10/26 00:19:52;;;;;;;;;;;10.60;99.90;;;;;;5161929;27;19922;-41
2023/10/26 00:22:18;;;;;;;;;;;10.60;99.90;;;;;;5180064;27;20388;-42
2023/10/26 00:24:44;;;;;;;;;;;10.60;99.90;;;;;;5180209;27;19923;-41
2023/10/26 00:27:09;;;;;;;;;;;10.60;99.90;;;;;;5179865;27;20267;-41
2023/10/26 00:29:35;;;;;;;;;;;10.60;99.90;;;;;;5180258;27;19933;-41
2023/10/26 00:32:00;;;;;;;;;;;10.60;99.90;;;;;;5179949;27;19929;-41
2023/10/26 00:34:26;;;;;;;;;;;10.60;99.90;;;;;;5180135;27;19922;-41
2023/10/26 00:36:52;;;;;;;;;;;10.60;99.90;;;;;;5179846;27;19929;-41
2023/10/26 00:39:17;;;;;;;;;;;10.60;99.90;;;;;;5180002;27;19929;-41
2023/10/26 00:41:43;;;;;;;;;;;10.60;99.90;;;;;;5161371;27;19923;-41
2023/10/26 00:44:08;;;;;;;;;;;10.60;99.90;;;;;;5161766;27;19930;-41
2023/10/26 00:46:35;;;;;;;;;;;10.50;99.90;;;;;;5179885;27;20005;-41
2023/10/26 00:49:01;;;;;;;;;;;10.50;99.90;;;;;;5179944;27;19930;-41
2023/10/26 00:51:26;;;;;;;;;;;10.50;99.90;;;;;;5179731;27;20273;-41
2023/10/26 00:53:52;;;;;;;;;;;10.50;99.90;;;;;;5179435;27;19930;-41
2023/10/26 00:56:19;;;;;;;;;;;10.60;99.90;;;;;;5179579;27;19933;-42
2023/10/26 00:58:44;;;;;;;;;;;10.50;99.90;;;;;;5179492;27;20369;-41
2023/10/26 01:01:11;;;;;;;;;;;10.50;99.90;;;;;;5179931;27;19922;-41
2023/10/26 01:03:37;;;;;;;;;;;10.50;99.90;;;;;;5179240;27;20021;-41
2023/10/26 01:06:03;;;;;;;;;;;10.50;99.90;;;;;;5179179;27;19923;-41
2023/10/26 01:08:28;;;;;;;;;;;10.50;99.90;;;;;;5160943;27;19972;-41
2023/10/26 01:10:54;;;;;;;;;;;10.50;99.90;;;;;;5178930;27;19950;-41
2023/10/26 01:13:19;;;;;;;;;;;10.50;99.90;;;;;;5179860;27;19927;-41
2023/10/26 01:15:45;;;;;;;;;;;10.50;99.90;;;;;;5179014;27;19923;-42
2023/10/26 01:18:11;;;;;;;;;;;10.50;99.90;;;;;;5160569;27;19922;-41
2023/10/26 01:20:40;;;;;;;;;;;10.50;99.90;;;;;;5178894;27;19923;-42
2023/10/26 01:23:06;;;;;;;;;;;10.50;99.90;;;;;;5178917;27;19930;-41
2023/10/26 01:25:32;;;;;;;;;;;10.50;99.90;;;;;;5179002;27;19929;-41
2023/10/26 01:27:57;;;;;;;;;;;10.50;99.90;;;;;;5179143;27;20280;-41
2023/10/26 01:30:23;;;;;;;;;;;10.50;99.90;;;;;;5178931;27;20385;-41
2023/10/26 01:32:48;;;;;;;;;;;10.40;99.90;;;;;;5178783;27;19929;-41
2023/10/26 01:35:14;;;;;;;;;;;10.50;99.90;;;;;;5178924;27;20017;-41
2023/10/26 01:37:39;;;;;;;;;;;10.50;99.90;;;;;;5178919;27;19930;-41
2023/10/26 01:40:06;;;;;;;;;;;10.40;99.90;;;;;;5178555;27;19971;-41
2023/10/26 01:42:32;;;;;;;;;;;10.50;99.90;;;;;;5178999;27;19923;-41
2023/10/26 01:44:58;;;;;;;;;;;10.50;99.90;;;;;;5178705;27;20372;-41
2023/10/26 01:47:23;;;;;;;;;;;10.50;99.90;;;;;;5178737;27;19970;-41
2023/10/26 01:49:49;;;;;;;;;;;10.50;99.90;;;;;;5178628;27;19924;-41
2023/10/26 01:52:14;;;;;;;;;;;10.50;99.90;;;;;;5178541;27;19927;-41
2023/10/26 01:54:40;;;;;;;;;;;10.50;99.90;;;;;;5178095;27;19923;-41
2023/10/26 01:57:05;;;;;;;;;;;10.50;99.90;;;;;;5178560;27;20361;-41
2023/10/26 01:59:31;;;;;;;;;;;10.50;99.90;;;;;;5178437;27;19923;-41
2023/10/26 02:01:56;;;;;;;;;;;10.50;99.90;;;;;;5178437;27;19923;-41
2023/10/26 02:04:22;;;;;;;;;;;10.50;99.90;;;;;;5178303;27;19923;-41
2023/10/26 02:06:47;;;;;;;;;;;10.50;99.90;;;;;;5178143;27;19944;-41
2023/10/26 02:09:13;;;;;;;;;;;10.50;99.90;;;;;;5178213;27;20421;-41
2023/10/26 02:11:38;;;;;;;;;;;10.50;99.90;;;;;;5177896;27;20281;-41
2023/10/26 02:14:04;;;;;;;;;;;10.50;99.90;;;;;;5178408;27;19931;-41
2023/10/26 02:16:30;;;;;;;;;;;10.50;99.90;;;;;;5178297;27;20358;-41
2023/10/26 02:18:55;;;;;;;;;;;10.50;99.90;;;;;;5177975;27;19923;-41
2023/10/26 02:21:21;;;;;;;;;;;10.40;99.90;;;;;;5178087;27;19977;-41
2023/10/26 02:23:46;;;;;;;;;;;10.50;99.90;;;;;;5177861;27;19934;-42
2023/10/26 02:26:12;;;;;;;;;;;10.40;99.90;;;;;;5176927;27;19930;-41
2023/10/26 02:28:37;;;;;;;;;;;10.50;99.90;;;;;;5177953;27;19929;-41
2023/10/26 02:31:03;;;;;;;;;;;10.40;99.90;;;;;;5177771;27;19930;-41
2023/10/26 02:33:28;;;;;;;;;;;10.40;99.90;;;;;;5177843;27;19945;-41
2023/10/26 02:35:54;;;;;;;;;;;10.40;99.90;;;;;;5177790;27;19926;-41
2023/10/26 02:38:20;;;;;;;;;;;10.40;99.90;;;;;;5177492;27;19983;-41
2023/10/26 02:40:45;;;;;;;;;;;10.40;99.90;;;;;;5177515;27;19991;-41
2023/10/26 02:43:11;;;;;;;;;;;10.40;99.90;;;;;;5177547;27;19923;-41
2023/10/26 02:45:36;;;;;;;;;;;10.40;99.90;;;;;;5177742;27;19923;-41
2023/10/26 02:48:05;;;;;;;;;;;10.40;99.90;;;;;;5177577;27;19923;-41
2023/10/26 02:50:30;;;;;;;;;;;10.40;99.90;;;;;;5177255;27;19922;-41
2023/10/26 02:52:56;;;;;;;;;;;10.40;99.90;;;;;;5158749;27;20266;-42
2023/10/26 02:55:23;;;;;;;;;;;10.40;99.90;;;;;;5177456;27;20381;-41
2023/10/26 02:57:50;;;;;;;;;;;10.40;99.90;;;;;;5158730;27;19966;-41
2023/10/26 03:00:16;;;;;;;;;;;10.40;99.90;;;;;;5177289;27;20504;-41
2023/10/26 03:02:41;;;;;;;;;;;10.40;99.90;;;;;;5177157;27;19929;-41
2023/10/26 03:05:08;;;;;;;;;;;10.40;99.90;;;;;;5177149;27;20306;-41
2023/10/26 03:07:34;;;;;;;;;;;10.40;99.90;;;;;;5158683;27;19929;-41
2023/10/26 03:10:00;;;;;;;;;;;10.30;99.90;;;;;;5177101;27;19923;-41
2023/10/26 03:12:25;;;;;;;;;;;10.40;99.90;;;;;;5176933;27;19922;-41
2023/10/26 03:14:51;;;;;;;;;;;10.30;99.90;;;;;;5177057;27;19962;-41
2023/10/26 03:17:16;;;;;;;;;;;10.30;99.90;;;;;;5158311;27;19995;-41
2023/10/26 03:19:42;;;;;;;;;;;10.30;99.90;;;;;;5158234;27;19979;-41
2023/10/26 03:22:10;;;;;;;;;;;10.40;99.90;;;;;;5176649;27;19930;-41
2023/10/26 03:24:36;;;;;;;;;;;10.40;99.90;;;;;;5176692;27;20392;-41
2023/10/26 03:27:02;;;;;;;;;;;10.30;99.90;;;;;;5176828;27;19930;-41
2023/10/26 03:29:27;;;;;;;;;;;10.30;99.90;;;;;;5176849;27;19922;-41
2023/10/26 03:31:53;;;;;;;;;;;10.30;99.90;;;;;;5158279;27;20353;-41
2023/10/26 03:34:19;;;;;;;;;;;10.30;99.90;;;;;;5176808;27;19930;-41
2023/10/26 03:36:45;;;;;;;;;;;10.30;99.90;;;;;;5176442;27;20381;-41
2023/10/26 03:39:11;;;;;;;;;;;10.30;99.90;;;;;;5158146;27;19929;-41
2023/10/26 03:41:36;;;;;;;;;;;10.30;99.90;;;;;;5176460;27;20432;-41
2023/10/26 03:44:02;;;;;;;;;;;10.30;99.90;;;;;;5176533;27;20366;-41
2023/10/26 03:46:27;;;;;;;;;;;10.30;99.90;;;;;;5176580;27;20010;-41
2023/10/26 03:48:53;;;;;;;;;;;10.20;99.90;;;;;;5176668;27;19930;-42
2023/10/26 03:51:20;;;;;;;;;;;10.20;99.90;;;;;;5176244;27;19927;-42
2023/10/26 03:53:46;;;;;;;;;;;10.20;99.90;;;;;;5176079;27;19945;-41
2023/10/26 03:56:11;;;;;;;;;;;10.20;99.90;;;;;;5176270;27;20362;-41
2023/10/26 03:58:37;;;;;;;;;;;10.20;99.90;;;;;;5176380;27;19923;-41
2023/10/26 04:01:03;;;;;;;;;;;10.20;99.90;;;;;;5176309;27;20349;-41
2023/10/26 04:03:29;;;;;;;;;;;10.20;99.90;;;;;;5176363;27;20385;-41
2023/10/26 04:05:55;;;;;;;;;;;10.20;99.90;;;;;;5176303;27;19933;-42
2023/10/26 04:08:20;;;;;;;;;;;10.20;99.90;;;;;;5176257;27;20009;-41
2023/10/26 04:10:46;;;;;;;;;;;10.10;99.90;;;;;;5176368;27;19998;-41
2023/10/26 04:13:11;;;;;;;;;;;10.20;99.90;;;;;;5176414;27;19923;-41
2023/10/26 04:15:37;;;;;;;;;;;10.20;99.90;;;;;;5176217;27;19923;-41
2023/10/26 04:18:03;;;;;;;;;;;10.10;99.90;;;;;;5176246;27;19969;-41
2023/10/26 04:20:29;;;;;;;;;;;10.10;99.90;;;;;;5176067;27;19923;-41
2023/10/26 04:22:54;;;;;;;;;;;10.10;99.90;;;;;;5176094;27;19979;-42
2023/10/26 04:25:21;;;;;;;;;;;10.10;99.90;;;;;;5176303;27;20062;-41
2023/10/26 04:27:47;;;;;;;;;;;10.20;99.90;;;;;;5176288;27;19926;-41
2023/10/26 04:30:12;;;;;;;;;;;10.20;99.90;;;;;;5176222;27;19929;-41
2023/10/26 04:32:41;;;;;;;;;;;10.20;99.90;;;;;;5176326;27;19922;-41
2023/10/26 04:35:07;;;;;;;;;;;10.20;99.90;;;;;;5176047;27;20009;-42
2023/10/26 04:37:33;;;;;;;;;;;10.20;99.90;;;;;;5176191;27;20018;-41
2023/10/26 04:39:58;;;;;;;;;;;10.20;99.90;;;;;;5176321;27;19966;-41
2023/10/26 04:42:24;;;;;;;;;;;10.20;99.90;;;;;;5176111;27;19937;-41
2023/10/26 04:44:49;;;;;;;;;;;10.20;99.90;;;;;;5176041;27;20437;-41
2023/10/26 04:47:15;;;;;;;;;;;10.20;99.90;;;;;;5175959;27;20285;-41
2023/10/26 04:49:41;;;;;;;;;;;10.20;99.90;;;;;;5177995;27;20029;-41
2023/10/26 04:52:08;;;;;;;;;;;10.20;99.90;;;;;;5179764;27;20018;-41
2023/10/26 04:54:33;;;;;;;;;;;10.20;99.90;;;;;;5179511;27;19923;-41
2023/10/26 04:56:59;;;;;;;;;;;10.20;99.90;;;;;;5161092;27;19923;-41
2023/10/26 04:59:24;;;;;;;;;;;10.20;99.90;;;;;;5179630;27;19926;-41
2023/10/26 05:01:51;;;;;;;;;;;10.20;99.90;;;;;;5179502;27;19923;-41
2023/10/26 05:04:16;;;;;;;;;;;10.20;99.90;;;;;;5179480;27;19975;-41
2023/10/26 05:06:42;;;;;;;;;;;10.20;99.90;;;;;;5179384;27;20005;-42
2023/10/26 05:09:07;;;;;;;;;;;10.20;99.90;;;;;;5179792;27;19930;-41
2023/10/26 05:11:33;;;;;;;;;;;10.20;99.90;;;;;;5179263;27;19931;-41
2023/10/26 05:13:59;;;;;;;;;;;10.20;99.90;;;;;;5179213;27;19930;-41
2023/10/26 05:16:24;;;;;;;;;;;10.20;99.90;;;;;;5179366;27;19927;-41
2023/10/26 05:18:50;;;;;;;;;;;10.20;99.90;;;;;;5179067;27;20302;-41
2023/10/26 05:21:16;;;;;;;;;;;10.20;99.90;;;;;;5179024;27;19930;-41
2023/10/26 05:23:43;;;;;;;;;;;10.20;99.90;;;;;;5179225;27;20369;-41
2023/10/26 05:26:09;;;;;;;;;;;10.20;99.90;;;;;;5160826;27;20418;-41
2023/10/26 05:28:34;;;;;;;;;;;10.20;99.90;;;;;;5179121;27;19930;-41
2023/10/26 05:31:00;;;;;;;;;;;10.20;99.90;;;;;;5178754;27;19929;-41
2023/10/26 05:33:26;;;;;;;;;;;10.20;99.90;;;;;;5179000;27;20025;-41
2023/10/26 05:35:51;;;;;;;;;;;10.10;99.90;;;;;;5160158;27;19923;-42
2023/10/26 05:38:19;;;;;;;;;;;10.10;99.90;;;;;;5179322;27;20025;-41
2023/10/26 05:40:49;;;;;;;;;;;10.10;99.90;;;;;;5178842;27;19927;-42
2023/10/26 05:43:14;;;;;;;;;;;10.10;99.90;;;;;;5178902;27;19967;-41
2023/10/26 05:45:40;;;;;;;;;;;10.10;99.90;;;;;;5178591;27;20021;-41
2023/10/26 05:48:06;;;;;;;;;;;10.00;99.90;;;;;;5178485;27;19923;-41
2023/10/26 05:50:32;;;;;;;;;;;10.00;99.90;;;;;;5160051;27;19926;-41
2023/10/26 05:52:57;;;;;;;;;;;10.00;99.90;;;;;;5178584;27;19945;-41
2023/10/26 05:55:23;;;;;;;;;;;10.00;99.90;;;;;;5178520;27;19930;-41
2023/10/26 05:57:49;;;;;;;;;;;9.90;99.90;;;;;;5178507;27;19923;-41
2023/10/26 06:00:15;;;;;;;;;;;9.90;99.90;;;;;;5177463;27;19926;-41
2023/10/26 06:02:41;;;;;;;;;;;9.90;99.90;;;;;;5178167;27;20369;-41
2023/10/26 06:05:07;;;;;;;;;;;9.90;99.90;;;;;;5178247;27;19974;-41
2023/10/26 06:07:32;;;;;;;;;;;9.90;99.90;;;;;;5178661;27;19963;-41
2023/10/26 06:09:58;;;;;;;;;;;9.90;99.90;;;;;;5178295;27;20281;-41
2023/10/26 06:12:23;;;;;;;;;;;9.90;99.90;;;;;;5178355;27;20315;-41
2023/10/26 06:14:49;;;;;;;;;;;9.90;99.90;;;;;;5177969;27;19983;-41
2023/10/26 06:17:15;;;;;;;;;;;9.90;99.90;;;;;;5178145;27;19927;-41
2023/10/26 06:19:41;;;;;;;;;;;9.80;99.90;;;;;;5177850;27;19929;-41
2023/10/26 06:22:06;;;;;;;;;;;9.80;99.90;;;;;;5178098;27;20009;-41
2023/10/26 06:24:32;;;;;;;;;;;9.80;99.90;;;;;;5178067;27;20285;-41
2023/10/26 06:26:57;;;;;;;;;;;9.70;99.90;;;;;;5159534;27;20330;-41
2023/10/26 06:29:23;;;;;;;;;;;9.70;99.90;;;;;;5177770;27;19930;-41
2023/10/26 06:31:48;;;;;;;;;;;9.70;99.90;;;;;;5177706;27;19923;-41
2023/10/26 06:34:14;;;;;;;;;;;9.70;99.90;;;;;;5158966;27;19945;-41
2023/10/26 06:36:40;;;;;;;;;;;9.60;99.90;;;;;;5177762;27;19922;-41
2023/10/26 06:39:05;;;;;;;;;;;9.60;99.90;;;;;;5159372;27;19927;-41
2023/10/26 06:41:31;;;;;;;;;;;9.50;99.90;;;;;;5177684;27;20021;-41
2023/10/26 06:43:56;;;;;;;;;;;9.60;99.90;;;;;;5177619;27;19975;-41
2023/10/26 06:46:22;;;;;;;;;;;9.50;99.90;;;;;;5177421;27;19923;-41
2023/10/26 06:48:48;;;;;;;;;;;9.50;99.90;;;;;;5177422;27;20422;-41
2023/10/26 06:51:14;;;;;;;;;;;9.60;99.90;;;;;;5177156;27;19930;-41
2023/10/26 06:53:39;;;;;;;;;;;9.50;99.90;;;;;;5177057;27;19967;-41
2023/10/26 06:56:11;;;;;;;;;;;9.50;99.90;;;;;;5177367;27;19933;-41
2023/10/26 06:58:39;;;;;;;;;;;9.50;99.90;;;;;;5159039;27;19923;-41
2023/10/26 07:01:07;;;;;;;;;;;9.60;99.90;;;;;;5177281;27;19927;-41
2023/10/26 07:03:32;;;;;;;;;;;9.60;99.90;;;;;;5177093;27;19974;-41
2023/10/26 07:06:04;;;;;;;;;;;9.60;99.90;;;;;;5177114;27;19923;-41
2023/10/26 07:08:31;;;;;;;;;;;9.60;99.90;;;;;;5176885;27;20389;-41
2023/10/26 07:10:59;;;;;;;;;;;9.60;99.90;;;;;;5176861;27;19980;-41
2023/10/26 07:13:25;;;;;;;;;;;9.60;99.90;;;;;;5176546;27;19923;-41
2023/10/26 07:15:50;;;;;;;;;;;9.60;99.90;;;;;;5176998;27;20281;-41
2023/10/26 07:18:18;;;;;;;;;;;9.60;99.90;;;;;;5176627;27;19922;-41
2023/10/26 07:20:44;;;;;;;;;;;9.60;99.90;;;;;;5176664;27;20300;-41
2023/10/26 07:23:10;;;;;;;;;;;9.60;99.90;;;;;;5176930;27;19974;-41
2023/10/26 07:25:35;;;;;;;;;;;9.60;99.90;;;;;;5176617;27;19966;-41
2023/10/26 07:28:02;;;;;;;;;;;9.60;99.90;;;;;;5158479;27;19923;-41
2023/10/26 07:30:27;;;;;;;;;;;9.60;99.90;;;;;;5176793;27;19926;-41
2023/10/26 07:32:53;;;;;;;;;;;9.60;99.90;;;;;;5157809;27;20384;-41
2023/10/26 07:35:18;;;;;;;;;;;9.60;99.90;;;;;;5176574;27;19967;-41
2023/10/26 07:37:44;;;;;;;;;;;9.60;99.90;;;;;;5176649;27;19923;-41
2023/10/26 07:40:10;;;;;;;;;;;9.60;99.90;;;;;;5176714;27;19927;-43
2023/10/26 07:42:36;;;;;;;;;;;9.60;99.90;;;;;;5176603;27;19945;-41
2023/10/26 07:45:01;;;;;;;;;;;9.60;99.90;;;;;;5176675;27;19930;-42
2023/10/26 07:47:27;;;;;;;;;;;9.70;99.90;;;;;;5176409;27;20022;-41
2023/10/26 07:49:52;;;;;;;;;;;9.70;99.90;;;;;;5158052;27;19923;-42
2023/10/26 07:52:18;;;;;;;;;;;9.70;99.90;;;;;;5176311;27;20017;-42
2023/10/26 07:54:44;;;;;;;;;;;9.70;99.90;;;;;;5176904;27;19930;-42
2023/10/26 07:57:09;;;;;;;;;;;9.60;99.90;;;;;;5176428;27;19923;-42
2023/10/26 07:59:35;;;;;;;;;;;9.70;99.90;;;;;;5176348;27;19949;-43
2023/10/26 08:02:01;;;;;;;;;;;9.70;99.90;;;;;;5157703;27;20298;-42
2023/10/26 08:04:29;;;;;;;;;;;9.70;99.90;;;;;;5176450;27;19929;-42
2023/10/26 08:06:55;;;;;;;;;;;9.70;99.90;;;;;;5176313;27;19927;-42
2023/10/26 08:09:20;;;;;;;;;;;9.70;99.90;;;;;;5176397;27;20293;-42
2023/10/26 08:11:46;;;;;;;;;;;9.60;99.90;;;;;;5176200;27;19927;-42
2023/10/26 08:14:11;;;;;;;;;;;9.60;99.90;;;;;;5176077;27;20290;-42
2023/10/26 08:16:39;;;;;;;;;;;9.60;99.90;;;;;;5176024;27;19923;-41
2023/10/26 08:19:04;;;;;;;;;;;9.70;99.90;;;;;;5176056;27;20395;-42
2023/10/26 08:21:30;;;;;;;;;;;9.70;99.90;;;;;;5176186;27;19922;-42
2023/10/26 08:23:56;;;;;;;;;;;9.70;99.90;;;;;;5176989;27;19985;-42
2023/10/26 08:26:21;;;;;;;;;;;9.70;99.90;;;;;;5180226;27;19966;-42
2023/10/26 08:28:47;;;;;;;;;;;9.70;99.90;;;;;;5180054;27;19923;-42
2023/10/26 08:31:13;;;;;;;;;;;9.70;99.90;;;;;;5179856;27;19923;-42
2023/10/26 08:33:38;;;;;;;;;;;9.70;99.90;;;;;;5180061;27;19923;-42
2023/10/26 08:36:05;;;;;;;;;;;9.70;99.90;;;;;;5180115;27;19923;-42
2023/10/26 08:38:32;;;;;;;;;;;9.70;99.90;;;;;;5161699;27;20377;-42
2023/10/26 08:40:58;;;;;;;;;;;9.80;99.90;;;;;;5180054;27;19929;-42
2023/10/26 08:43:23;;;;;;;;;;;9.80;99.90;;;;;;5179650;27;20009;-42
2023/10/26 08:45:50;;;;;;;;;;;9.80;99.90;;;;;;5180183;27;19970;-42
2023/10/26 08:48:17;;;;;;;;;;;9.80;99.90;;;;;;5180184;27;19965;-42
2023/10/26 08:50:42;;;;;;;;;;;9.80;99.90;;;;;;5161357;27;19922;-42
2023/10/26 08:53:09;;;;;;;;;;;9.80;99.90;;;;;;5179654;27;19967;-42
2023/10/26 08:55:37;;;;;;;;;;;9.80;99.90;;;;;;5179218;27;20011;-42
2023/10/26 08:58:03;;;;;;;;;;;9.80;99.90;;;;;;5160916;27;20382;-42
2023/10/26 09:00:29;;;;;;;;;;;9.80;99.90;;;;;;5179352;27;19966;-41
2023/10/26 09:02:54;;;;;;;;;;;9.80;99.90;;;;;;5179638;27;19927;-42
2023/10/26 09:05:20;;;;;;;;;;;9.80;99.90;;;;;;5179507;27;19930;-42
2023/10/26 09:07:46;;;;;;;;;;;9.80;99.90;;;;;;5179428;27;19934;-43
2023/10/26 09:10:11;;;;;;;;;;;9.90;99.90;;;;;;5161097;27;19923;-42
2023/10/26 09:12:37;;;;;;;;;;;9.90;99.90;;;;;;5179211;27;19930;-42
2023/10/26 09:15:04;;;;;;;;;;;9.90;99.90;;;;;;5179016;27;19973;-42
2023/10/26 09:17:30;;;;;;;;;;;9.90;99.90;;;;;;5179202;27;20440;-41
2023/10/26 09:19:57;;;;;;;;;;;10.00;99.90;;;;;;5179399;27;19949;-42
2023/10/26 09:22:35;;;;;;;;;;;10.00;99.90;;;;;;5179168;27;20413;-42
2023/10/26 09:25:08;;;;;;;;;;;10.00;99.90;;;;;;5178964;27;20381;-42
2023/10/26 09:27:36;;;;;;;;;;;10.00;99.90;;;;;;5178916;27;19926;-42
2023/10/26 09:30:03;;;;;;;;;;;10.10;99.90;;;;;;5179127;27;19982;-42
2023/10/26 09:32:32;;;;;;;;;;;10.10;99.90;;;;;;5178903;27;19930;-42
2023/10/26 09:34:57;;;;;;;;;;;10.10;99.90;;;;;;5178693;27;20378;-42
2023/10/26 09:37:23;;;;;;;;;;;10.10;99.90;;;;;;5178782;27;19975;-42
2023/10/26 09:39:49;;;;;;;;;;;10.10;99.90;;;;;;5178617;27;20387;-42
2023/10/26 09:42:16;;;;;;;;;;;10.10;99.90;;;;;;5178848;27;19930;-42
2023/10/26 09:44:41;;;;;;;;;;;10.20;99.90;;;;;;5178748;27;19922;-41
2023/10/26 09:47:08;;;;;;;;;;;10.20;99.90;;;;;;5178631;27;20281;-42
2023/10/26 09:49:33;;;;;;;;;;;10.10;99.90;;;;;;5178517;27;19923;-42
2023/10/26 09:51:59;;;;;;;;;;;10.10;99.90;;;;;;5178236;27;19923;-42
2023/10/26 09:54:27;;;;;;;;;;;10.10;99.90;;;;;;5178278;27;20318;-42
2023/10/26 09:57:19;;;;;;;;;;;10.10;99.90;;;;;;5178535;27;19922;-42
2023/10/26 09:59:49;;;;;;;;;;;10.20;99.90;;;;;;5173340;27;19930;-42
2023/10/26 10:02:15;;;;;;;;;;;10.20;99.90;;;;;;5178359;27;19927;-42
2023/10/26 10:04:42;;;;;;;;;;;10.20;99.90;;;;;;5178087;27;19922;-42
2023/10/26 10:07:07;;;;;;;;;;;10.20;99.90;;;;;;5177956;27;19968;-42
2023/10/26 10:09:53;;;;;;;;;;;10.20;99.90;;;;;;5178403;27;19974;-42
2023/10/26 10:12:25;;;;;;;;;;;10.20;99.90;;;;;;5178071;27;20025;-42
2023/10/26 10:17:49;;;;;;;;;;;10.20;99.90;;;;;;5164181;27;19929;-42
2023/10/26 10:20:14;;;;;;;;;;;10.20;99.90;;;;;;5178000;27;20373;-42
2023/10/26 10:22:40;;;;;;;;;;;10.20;99.90;;;;;;5177945;27;19923;-42
2023/10/26 10:25:09;;;;;;;;;;;10.20;99.90;;;;;;5159632;27;19946;-42
2023/10/26 10:27:34;;;;;;;;;;;10.30;99.90;;;;;;5177671;27;20385;-43
2023/10/26 10:30:07;;;;;;;;;;;10.30;99.90;;;;;;5177779;27;19930;-42
2023/10/26 10:32:46;;;;;;;;;;;10.30;99.90;;;;;;5177601;27;19929;-42
2023/10/26 10:35:12;;;;;;;;;;;10.30;99.90;;;;;;5177653;27;20013;-42
2023/10/26 10:37:38;;;;;;;;;;;10.30;99.90;;;;;;5177640;27;20029;-42
2023/10/26 10:40:13;;;;;;;;;;;10.30;99.90;;;;;;5177687;27;19929;-42
2023/10/26 10:42:39;;;;;;;;;;;10.30;99.90;;;;;;5177452;27;20482;-42
2023/10/26 10:45:15;;;;;;;;;;;10.20;99.90;;;;;;5177546;27;19927;-42
2023/10/26 10:47:41;;;;;;;;;;;10.30;99.90;;;;;;5158681;27;19930;-41
2023/10/26 10:50:17;;;;;;;;;;;10.30;99.90;;;;;;5177468;27;19922;-42
2023/10/26 10:52:43;;;;;;;;;;;10.30;99.90;;;;;;5177435;27;20006;-42
2023/10/26 10:55:09;;;;;;;;;;;10.30;99.90;;;;;;5177346;27;20009;-42
2023/10/26 10:57:34;;;;;;;;;;;10.20;99.90;;;;;;5177372;27;20396;-42
2023/10/26 11:00:00;;;;;;;;;;;10.20;99.90;;;;;;5177338;27;19923;-42
2023/10/26 11:02:25;;;;;;;;;;;10.20;99.90;;;;;;5177111;27;19923;-42
2023/10/26 11:04:57;;;;;;;;;;;10.20;99.90;;;;;;5177062;27;19922;-42
2023/10/26 11:07:24;;;;;;;;;;;10.20;99.90;;;;;;5177007;27;19970;-42
2023/10/26 11:09:54;;;;;;;;;;;10.20;99.90;;;;;;5177117;27;20373;-42
2023/10/26 11:12:20;;;;;;;;;;;10.20;99.90;;;;;;5158437;27;19973;-42
2023/10/26 11:14:49;;;;;;;;;;;10.30;99.90;;;;;;5176981;27;19926;-44
2023/10/26 11:17:15;;;;;;;;;;;10.30;99.90;;;;;;5176988;27;19922;-42
2023/10/26 11:19:41;;;;;;;;;;;10.30;99.90;;;;;;5158313;27;19923;-43
2023/10/26 11:22:07;;;;;;;;;;;10.30;99.90;;;;;;5176677;27;20266;-43
2023/10/26 11:24:32;;;;;;;;;;;10.40;99.90;;;;;;5176654;27;19922;-43
2023/10/26 11:27:07;;;;;;;;;;;10.40;99.90;;;;;;5176892;27;19922;-44
2023/10/26 11:29:33;;;;;;;;;;;10.40;99.90;;;;;;5176907;27;20281;-42
2023/10/26 11:31:58;;;;;;;;;;;10.40;99.90;;;;;;5176662;27;19923;-43
2023/10/26 11:34:25;;;;;;;;;;;10.50;99.90;;;;;;5176809;27;19923;-42
2023/10/26 11:36:52;;;;;;;;;;;10.50;99.90;;;;;;5158144;27;19923;-43
2023/10/26 11:39:18;;;;;;;;;;;10.50;99.90;;;;;;5176697;27;19922;-42
2023/10/26 11:41:51;;;;;;;;;;;10.50;99.90;;;;;;5176635;27;20380;-42
2023/10/26 11:44:25;;;;;;;;;;;10.50;99.90;;;;;;5176472;27;19922;-42
2023/10/26 11:46:57;;;;;;;;;;;10.60;99.90;;;;;;5176598;27;20390;-42
2023/10/26 11:49:39;;;;;;;;;;;10.60;99.90;;;;;;5176265;27;20381;-42
2023/10/26 11:52:05;;;;;;;;;;;10.60;99.90;;;;;;5176441;27;19966;-42
2023/10/26 11:54:31;;;;;;;;;;;10.60;99.90;;;;;;5176564;27;20277;-42
2023/10/26 11:56:56;;;;;;;;;;;10.60;99.90;;;;;;5176491;27;20005;-42
2023/10/26 11:59:22;;;;;;;;;;;10.60;99.90;;;;;;5178078;27;20016;-42
2023/10/26 12:01:47;;;;;;;;;;;10.70;99.90;;;;;;5180710;27;19948;-42
2023/10/26 12:04:13;;;;;;;;;;;10.70;99.90;;;;;;5180691;27;19923;-42
2023/10/26 12:06:39;;;;;;;;;;;10.70;99.90;;;;;;5180634;27;20363;-42
2023/10/26 12:09:06;;;;;;;;;;;10.70;99.90;;;;;;5180618;27;19923;-42
2023/10/26 12:11:31;;;;;;;;;;;10.70;99.90;;;;;;5180286;27;20296;-42
2023/10/26 12:13:57;;;;;;;;;;;10.70;99.90;;;;;;5180329;27;19927;-42
2023/10/26 12:16:23;;;;;;;;;;;10.80;99.90;;;;;;5161935;27;19965;-42
2023/10/26 12:18:48;;;;;;;;;;;10.80;99.90;;;;;;5180886;27;19974;-42
2023/10/26 12:21:14;;;;;;;;;;;10.90;99.90;;;;;;5180329;27;19923;-42
2023/10/26 12:23:40;;;;;;;;;;;10.80;99.90;;;;;;5180711;27;20053;-42
2023/10/26 12:26:06;;;;;;;;;;;10.90;99.90;;;;;;5180298;27;20021;-42
2023/10/26 12:28:31;;;;;;;;;;;10.90;99.90;;;;;;5180359;27;19930;-42
2023/10/26 12:30:57;;;;;;;;;;;10.90;99.90;;;;;;5179997;27;19922;-42
2023/10/26 12:33:22;;;;;;;;;;;10.90;99.90;;;;;;5180447;27;19923;-42
2023/10/26 12:35:48;;;;;;;;;;;10.90;99.90;;;;;;5180217;27;19930;-42
2023/10/26 12:38:14;;;;;;;;;;;11.00;99.90;;;;;;5179989;27;19923;-42
2023/10/26 12:40:40;;;;;;;;;;;11.00;99.90;;;;;;5180005;27;19929;-42
2023/10/26 12:43:05;;;;;;;;;;;11.10;99.90;;;;;;5179822;27;19922;-42
2023/10/26 12:45:31;;;;;;;;;;;11.10;99.90;;;;;;5180002;27;20381;-43
2023/10/26 12:47:57;;;;;;;;;;;11.10;99.90;;;;;;5179596;27;20281;-42
2023/10/26 12:50:22;;;;;;;;;;;11.10;99.90;;;;;;5161164;27;19923;-42
2023/10/26 12:52:48;;;;;;;;;;;11.10;99.90;;;;;;5179771;27;19923;-42
2023/10/26 12:55:13;;;;;;;;;;;11.20;99.90;;;;;;5160712;27;19997;-42
2023/10/26 12:57:39;;;;;;;;;;;11.30;99.90;;;;;;5179507;27;19944;-43
2023/10/26 13:00:05;;;;;;;;;;;11.30;99.90;;;;;;5179598;27;19927;-42
2023/10/26 13:02:30;;;;;;;;;;;11.30;99.90;;;;;;5179252;27;20297;-43
2023/10/26 13:04:56;;;;;;;;;;;11.30;99.90;;;;;;5179402;27;20273;-42
2023/10/26 13:07:24;;;;;;;;;;;11.30;99.90;;;;;;5179192;27;19923;-42
2023/10/26 13:09:50;;;;;;;;;;;11.30;99.90;;;;;;5178594;27;19967;-43
2023/10/26 13:12:15;;;;;;;;;;;11.30;99.90;;;;;;5179071;27;19927;-41
2023/10/26 13:14:41;;;;;;;;;;;11.30;99.90;;;;;;5160751;27;19975;-42
2023/10/26 13:17:06;;;;;;;;;;;11.40;99.90;;;;;;5178911;27;19923;-42
2023/10/26 13:19:32;;;;;;;;;;;11.40;99.90;;;;;;5160863;27;20410;-42
2023/10/26 13:21:57;;;;;;;;;;;11.50;99.90;;;;;;5179112;27;20355;-42
2023/10/26 13:24:23;;;;;;;;;;;11.40;99.90;;;;;;5179252;27;19929;-42
2023/10/26 13:26:50;;;;;;;;;;;11.50;99.90;;;;;;5179086;27;19922;-41
2023/10/26 13:29:15;;;;;;;;;;;11.50;99.90;;;;;;5160567;27;19938;-41
2023/10/26 13:31:41;;;;;;;;;;;11.50;99.90;;;;;;5178860;27;19927;-42
2023/10/26 13:34:07;;;;;;;;;;;11.50;99.90;;;;;;5179006;27;19923;-41
2023/10/26 13:36:32;;;;;;;;;;;11.60;99.90;;;;;;5160542;27;19923;-41
2023/10/26 13:38:58;;;;;;;;;;;11.60;99.90;;;;;;5178775;27;19975;-42
2023/10/26 13:41:23;;;;;;;;;;;11.60;99.90;;;;;;5178687;27;19926;-41
2023/10/26 13:43:50;;;;;;;;;;;11.60;99.90;;;;;;5178655;27;20398;-41
2023/10/26 13:46:15;;;;;;;;;;;11.60;99.90;;;;;;5178445;27;19927;-42
2023/10/26 13:48:41;;;;;;;;;;;11.60;99.90;;;;;;5178620;27;19949;-42
2023/10/26 13:51:06;;;;;;;;;;;11.60;99.90;;;;;;5178800;27;20362;-41
2023/10/26 13:53:32;;;;;;;;;;;11.50;99.90;;;;;;5178558;27;19922;-42
2023/10/26 13:56:01;;;;;;;;;;;11.50;99.90;;;;;;5178546;27;19975;-42
2023/10/26 13:58:26;;;;;;;;;;;11.50;99.90;;;;;;5178517;27;19923;-42
2023/10/26 14:00:52;;;;;;;;;;;11.50;99.90;;;;;;5178233;27;20021;-42
2023/10/26 14:03:17;;;;;;;;;;;11.50;99.90;;;;;;5179029;27;19983;-42
2023/10/26 14:05:50;;;;;;;;;;;11.50;99.90;;;;;;5178419;27;20365;-42
2023/10/26 14:08:15;;;;;;;;;;;11.50;99.90;;;;;;5178276;27;19927;-42
2023/10/26 14:10:41;;;;;;;;;;;11.50;99.90;;;;;;5178522;27;19922;-42
2023/10/26 14:13:06;;;;;;;;;;;11.50;99.90;;;;;;5178172;27;19923;-42
2023/10/26 14:15:34;;;;;;;;;;;11.50;99.90;;;;;;5178071;27;20031;-42
2023/10/26 14:17:59;;;;;;;;;;;11.50;99.90;;;;;;5178490;27;20285;-42